sensor_id;sensor_type;location;lat;lon;timestamp;temperature;humidity
11824;DHT22;5969;50.780;7.726;2023-09-08T00:00:03;17.30;99.90
11824;DHT22;5969;50.780;7.726;2023-09-08T00:02:30;17.20;99.90
11824;DHT22;5969;50.780;7.726;2023-09-08T00:04:57;17.10;99.90
11824;DHT22;5969;50.780;7.726;2023-09-08T00:07:23;17.10;99.90
11824;DHT22;5969;50.780;7.726;2023-09-08T00:09:50;17.00;99.90
11824;DHT22;5969;50.780;7.726;2023-09-08T00:12:18;17.00;99.90
11824;DHT22;5969;50.780;7.726;2023-09-08T00:14:45;17.00;99.90
11824;DHT22;5969;50.780;7.726;2023-09-08T00:17:12;17.00;99.90
11824;DHT22;5969;50.780;7.726;2023-09-08T00:19:38;17.00;99.90
11824;DHT22;5969;50.780;7.726;2023-09-08T00:22:06;16.90;99.90
11824;DHT22;5969;50.780;7.726;2023-09-08T00:24:33;16.90;99.90
11824;DHT22;5969;50.780;7.726;2023-09-08T00:27:00;16.90;99.90
11824;DHT22;5969;50.780;7.726;2023-09-08T00:29:28;16.90;99.90
11824;DHT22;5969;50.780;7.726;2023-09-08T00:31:55;16.90;99.90
11824;DHT22;5969;50.780;7.726;2023-09-08T00:34:22;16.80;99.90
11824;DHT22;5969;50.780;7.726;2023-09-08T00:36:48;16.70;99.90
11824;DHT22;5969;50.780;7.726;2023-09-08T00:39:16;16.60;99.90
11824;DHT22;5969;50.780;7.726;2023-09-08T00:41:43;16.50;99.90
11824;DHT22;5969;50.780;7.726;2023-09-08T00:44:10;16.60;99.90
11824;DHT22;5969;50.780;7.726;2023-09-08T00:46:38;16.60;99.90
11824;DHT22;5969;50.780;7.726;2023-09-08T00:49:06;16.50;99.90
11824;DHT22;5969;50.780;7.726;2023-09-08T00:51:34;16.50;99.90
11824;DHT22;5969;50.780;7.726;2023-09-08T00:54:04;16.40;99.90
11824;DHT22;5969;50.780;7.726;2023-09-08T00:56:31;16.50;99.90
11824;DHT22;5969;50.780;7.726;2023-09-08T00:58:58;16.40;99.90
11824;DHT22;5969;50.780;7.726;2023-09-08T01:01:25;16.50;99.90
11824;DHT22;5969;50.780;7.726;2023-09-08T01:03:53;16.40;99.90
11824;DHT22;5969;50.780;7.726;2023-09-08T01:06:21;16.40;99.90
11824;DHT22;5969;50.780;7.726;2023-09-08T01:08:48;16.40;99.90
11824;DHT22;5969;50.780;7.726;2023-09-08T01:11:17;16.40;99.90
11824;DHT22;5969;50.780;7.726;2023-09-08T01:13:44;16.40;99.90
11824;DHT22;5969;50.780;7.726;2023-09-08T01:16:11;16.40;99.90
11824;DHT22;5969;50.780;7.726;2023-09-08T01:18:38;16.30;99.90
11824;DHT22;5969;50.780;7.726;2023-09-08T01:21:52;16.30;99.90
11824;DHT22;5969;50.780;7.726;2023-09-08T01:27:16;16.30;99.90
11824;DHT22;5969;50.780;7.726;2023-09-08T01:29:45;16.30;99.90
11824;DHT22;5969;50.780;7.726;2023-09-08T01:32:14;16.30;99.90
11824;DHT22;5969;50.780;7.726;2023-09-08T01:34:40;16.20;99.90
11824;DHT22;5969;50.780;7.726;2023-09-08T01:37:07;16.10;99.90
11824;DHT22;5969;50.780;7.726;2023-09-08T01:39:34;16.00;99.90
11824;DHT22;5969;50.780;7.726;2023-09-08T01:42:02;15.90;99.90
11824;DHT22;5969;50.780;7.726;2023-09-08T01:44:30;15.70;99.90
11824;DHT22;5969;50.780;7.726;2023-09-08T01:46:57;15.50;99.90
11824;DHT22;5969;50.780;7.726;2023-09-08T01:49:24;15.40;99.90
11824;DHT22;5969;50.780;7.726;2023-09-08T01:51:51;15.40;99.90
11824;DHT22;5969;50.780;7.726;2023-09-08T01:54:18;15.40;99.90
11824;DHT22;5969;50.780;7.726;2023-09-08T01:56:45;15.40;99.90
11824;DHT22;5969;50.780;7.726;2023-09-08T01:59:11;15.40;99.90
11824;DHT22;5969;50.780;7.726;2023-09-08T02:01:40;15.50;99.90
11824;DHT22;5969;50.780;7.726;2023-09-08T02:04:06;15.60;99.90
11824;DHT22;5969;50.780;7.726;2023-09-08T02:06:33;15.70;99.90
11824;DHT22;5969;50.780;7.726;2023-09-08T02:09:00;15.70;99.90
11824;DHT22;5969;50.780;7.726;2023-09-08T02:11:27;15.70;99.90
11824;DHT22;5969;50.780;7.726;2023-09-08T02:13:53;15.70;99.90
11824;DHT22;5969;50.780;7.726;2023-09-08T02:16:20;15.80;99.90
11824;DHT22;5969;50.780;7.726;2023-09-08T02:18:50;15.80;99.90
11824;DHT22;5969;50.780;7.726;2023-09-08T02:21:17;15.80;99.90
11824;DHT22;5969;50.780;7.726;2023-09-08T02:23:44;15.80;99.90
11824;DHT22;5969;50.780;7.726;2023-09-08T02:26:10;15.70;99.90
11824;DHT22;5969;50.780;7.726;2023-09-08T02:28:37;15.80;99.90
11824;DHT22;5969;50.780;7.726;2023-09-08T02:31:04;15.70;99.90
11824;DHT22;5969;50.780;7.726;2023-09-08T02:33:30;15.70;99.90
11824;DHT22;5969;50.780;7.726;2023-09-08T02:36:03;15.60;99.90
11824;DHT22;5969;50.780;7.726;2023-09-08T02:38:30;15.60;99.90
11824;DHT22;5969;50.780;7.726;2023-09-08T02:40:57;15.70;99.90
11824;DHT22;5969;50.780;7.726;2023-09-08T02:43:24;15.60;99.90
11824;DHT22;5969;50.780;7.726;2023-09-08T02:45:50;15.40;99.90
11824;DHT22;5969;50.780;7.726;2023-09-08T02:48:17;15.30;99.90
11824;DHT22;5969;50.780;7.726;2023-09-08T02:50:44;15.10;99.90
11824;DHT22;5969;50.780;7.726;2023-09-08T02:53:12;15.00;99.90
11824;DHT22;5969;50.780;7.726;2023-09-08T02:55:39;14.80;99.90
11824;DHT22;5969;50.780;7.726;2023-09-08T02:58:06;14.60;99.90
11824;DHT22;5969;50.780;7.726;2023-09-08T03:00:33;14.60;99.90
11824;DHT22;5969;50.780;7.726;2023-09-08T03:02:59;14.60;99.90
11824;DHT22;5969;50.780;7.726;2023-09-08T03:05:26;14.70;99.90
11824;DHT22;5969;50.780;7.726;2023-09-08T03:07:54;14.70;99.90
11824;DHT22;5969;50.780;7.726;2023-09-08T03:10:22;14.70;99.90
11824;DHT22;5969;50.780;7.726;2023-09-08T03:12:49;14.70;99.90
11824;DHT22;5969;50.780;7.726;2023-09-08T03:15:16;14.70;99.90
11824;DHT22;5969;50.780;7.726;2023-09-08T03:17:43;14.80;99.90
11824;DHT22;5969;50.780;7.726;2023-09-08T03:20:10;14.90;99.90
11824;DHT22;5969;50.780;7.726;2023-09-08T03:22:38;14.90;99.90
11824;DHT22;5969;50.780;7.726;2023-09-08T03:25:05;14.90;99.90
11824;DHT22;5969;50.780;7.726;2023-09-08T03:27:34;14.90;99.90
11824;DHT22;5969;50.780;7.726;2023-09-08T03:30:00;14.90;99.90
11824;DHT22;5969;50.780;7.726;2023-09-08T03:32:28;15.00;99.90
11824;DHT22;5969;50.780;7.726;2023-09-08T03:34:55;14.90;99.90
11824;DHT22;5969;50.780;7.726;2023-09-08T03:37:22;14.90;99.90
11824;DHT22;5969;50.780;7.726;2023-09-08T03:39:49;14.70;99.90
11824;DHT22;5969;50.780;7.726;2023-09-08T03:42:16;14.60;99.90
11824;DHT22;5969;50.780;7.726;2023-09-08T03:44:44;14.50;99.90
11824;DHT22;5969;50.780;7.726;2023-09-08T03:47:11;14.50;99.90
11824;DHT22;5969;50.780;7.726;2023-09-08T03:49:37;14.60;99.90
11824;DHT22;5969;50.780;7.726;2023-09-08T03:52:04;14.70;99.90
11824;DHT22;5969;50.780;7.726;2023-09-08T03:54:32;14.70;99.90
11824;DHT22;5969;50.780;7.726;2023-09-08T03:56:59;14.70;99.90
11824;DHT22;5969;50.780;7.726;2023-09-08T03:59:25;14.70;99.90
11824;DHT22;5969;50.780;7.726;2023-09-08T04:01:54;14.70;99.90
11824;DHT22;5969;50.780;7.726;2023-09-08T04:04:20;14.70;99.90
11824;DHT22;5969;50.780;7.726;2023-09-08T04:06:47;14.70;99.90
11824;DHT22;5969;50.780;7.726;2023-09-08T04:09:14;14.70;99.90
11824;DHT22;5969;50.780;7.726;2023-09-08T04:11:41;14.40;99.90
11824;DHT22;5969;50.780;7.726;2023-09-08T04:14:08;14.20;99.90
11824;DHT22;5969;50.780;7.726;2023-09-08T04:16:35;14.10;99.90
11824;DHT22;5969;50.780;7.726;2023-09-08T04:19:03;13.90;99.90
11824;DHT22;5969;50.780;7.726;2023-09-08T04:21:30;13.90;99.90
11824;DHT22;5969;50.780;7.726;2023-09-08T04:23:56;13.90;99.90
11824;DHT22;5969;50.780;7.726;2023-09-08T04:26:23;13.90;99.90
11824;DHT22;5969;50.780;7.726;2023-09-08T04:28:50;13.80;99.90
11824;DHT22;5969;50.780;7.726;2023-09-08T04:31:17;13.80;99.90
11824;DHT22;5969;50.780;7.726;2023-09-08T04:33:45;13.80;99.90
11824;DHT22;5969;50.780;7.726;2023-09-08T04:36:13;13.80;99.90
11824;DHT22;5969;50.780;7.726;2023-09-08T04:38:40;13.90;99.90
11824;DHT22;5969;50.780;7.726;2023-09-08T04:41:07;14.00;99.90
11824;DHT22;5969;50.780;7.726;2023-09-08T04:43:34;14.10;99.90
11824;DHT22;5969;50.780;7.726;2023-09-08T04:46:01;14.20;99.90
11824;DHT22;5969;50.780;7.726;2023-09-08T04:48:28;14.20;99.90
11824;DHT22;5969;50.780;7.726;2023-09-08T04:50:55;13.90;99.90
11824;DHT22;5969;50.780;7.726;2023-09-08T04:53:24;13.80;99.90
11824;DHT22;5969;50.780;7.726;2023-09-08T04:55:50;13.70;99.90
11824;DHT22;5969;50.780;7.726;2023-09-08T04:58:17;13.70;99.90
11824;DHT22;5969;50.780;7.726;2023-09-08T05:00:44;13.60;99.90
11824;DHT22;5969;50.780;7.726;2023-09-08T05:03:11;13.60;99.90
11824;DHT22;5969;50.780;7.726;2023-09-08T05:05:37;13.60;99.90
11824;DHT22;5969;50.780;7.726;2023-09-08T05:08:05;13.60;99.90
11824;DHT22;5969;50.780;7.726;2023-09-08T05:10:33;13.60;99.90
11824;DHT22;5969;50.780;7.726;2023-09-08T05:13:00;13.50;99.90
11824;DHT22;5969;50.780;7.726;2023-09-08T05:15:26;13.50;99.90
11824;DHT22;5969;50.780;7.726;2023-09-08T05:17:53;13.40;99.90
11824;DHT22;5969;50.780;7.726;2023-09-08T05:20:20;13.40;99.90
11824;DHT22;5969;50.780;7.726;2023-09-08T05:22:47;13.60;99.90
11824;DHT22;5969;50.780;7.726;2023-09-08T05:25:14;13.80;99.90
11824;DHT22;5969;50.780;7.726;2023-09-08T05:27:42;14.00;99.90
11824;DHT22;5969;50.780;7.726;2023-09-08T05:30:11;14.00;99.90
11824;DHT22;5969;50.780;7.726;2023-09-08T05:32:38;13.70;99.90
11824;DHT22;5969;50.780;7.726;2023-09-08T05:35:05;13.70;99.90
11824;DHT22;5969;50.780;7.726;2023-09-08T05:37:32;13.70;99.90
11824;DHT22;5969;50.780;7.726;2023-09-08T05:39:59;13.70;99.90
11824;DHT22;5969;50.780;7.726;2023-09-08T05:42:26;13.80;99.90
11824;DHT22;5969;50.780;7.726;2023-09-08T05:44:54;13.80;99.90
11824;DHT22;5969;50.780;7.726;2023-09-08T05:47:21;13.80;99.90
11824;DHT22;5969;50.780;7.726;2023-09-08T05:49:48;13.80;99.90
11824;DHT22;5969;50.780;7.726;2023-09-08T05:52:14;14.00;99.90
11824;DHT22;5969;50.780;7.726;2023-09-08T05:54:41;14.00;99.90
11824;DHT22;5969;50.780;7.726;2023-09-08T05:57:08;14.20;99.90
11824;DHT22;5969;50.780;7.726;2023-09-08T05:59:35;14.30;99.90
11824;DHT22;5969;50.780;7.726;2023-09-08T06:02:03;14.40;99.90
11824;DHT22;5969;50.780;7.726;2023-09-08T06:04:30;14.50;99.90
11824;DHT22;5969;50.780;7.726;2023-09-08T06:06:58;14.70;99.90
11824;DHT22;5969;50.780;7.726;2023-09-08T06:09:25;14.80;99.90
11824;DHT22;5969;50.780;7.726;2023-09-08T06:11:51;14.90;99.90
11824;DHT22;5969;50.780;7.726;2023-09-08T06:14:18;15.00;99.90
11824;DHT22;5969;50.780;7.726;2023-09-08T06:16:45;15.10;99.90
11824;DHT22;5969;50.780;7.726;2023-09-08T06:19:13;15.20;99.90
11824;DHT22;5969;50.780;7.726;2023-09-08T06:21:40;15.30;99.90
11824;DHT22;5969;50.780;7.726;2023-09-08T06:24:07;15.40;99.90
11824;DHT22;5969;50.780;7.726;2023-09-08T06:26:34;15.40;99.90
11824;DHT22;5969;50.780;7.726;2023-09-08T06:29:01;15.60;99.90
11824;DHT22;5969;50.780;7.726;2023-09-08T06:31:28;15.60;99.90
11824;DHT22;5969;50.780;7.726;2023-09-08T06:33:54;15.70;99.90
11824;DHT22;5969;50.780;7.726;2023-09-08T06:36:23;15.80;99.90
11824;DHT22;5969;50.780;7.726;2023-09-08T06:38:49;15.90;99.90
11824;DHT22;5969;50.780;7.726;2023-09-08T06:41:16;16.00;99.90
11824;DHT22;5969;50.780;7.726;2023-09-08T06:43:44;16.10;99.90
11824;DHT22;5969;50.780;7.726;2023-09-08T06:46:11;16.20;99.90
11824;DHT22;5969;50.780;7.726;2023-09-08T06:48:38;16.30;99.90
11824;DHT22;5969;50.780;7.726;2023-09-08T06:51:04;16.40;99.90
11824;DHT22;5969;50.780;7.726;2023-09-08T06:53:33;16.50;99.90
11824;DHT22;5969;50.780;7.726;2023-09-08T06:55:59;16.60;99.90
11824;DHT22;5969;50.780;7.726;2023-09-08T06:58:26;16.70;99.90
11824;DHT22;5969;50.780;7.726;2023-09-08T07:00:53;16.80;99.90
11824;DHT22;5969;50.780;7.726;2023-09-08T07:03:20;16.80;99.90
11824;DHT22;5969;50.780;7.726;2023-09-08T07:05:49;16.90;99.90
11824;DHT22;5969;50.780;7.726;2023-09-08T07:08:16;17.00;99.90
11824;DHT22;5969;50.780;7.726;2023-09-08T07:10:45;17.00;99.90
11824;DHT22;5969;50.780;7.726;2023-09-08T07:13:11;17.00;99.90
11824;DHT22;5969;50.780;7.726;2023-09-08T07:15:38;17.20;99.90
11824;DHT22;5969;50.780;7.726;2023-09-08T07:18:05;17.30;99.90
11824;DHT22;5969;50.780;7.726;2023-09-08T07:20:32;17.40;99.90
11824;DHT22;5969;50.780;7.726;2023-09-08T07:23:00;17.50;99.90
11824;DHT22;5969;50.780;7.726;2023-09-08T07:25:27;17.70;99.90
11824;DHT22;5969;50.780;7.726;2023-09-08T07:27:55;17.60;99.90
11824;DHT22;5969;50.780;7.726;2023-09-08T07:30:21;17.80;99.90
11824;DHT22;5969;50.780;7.726;2023-09-08T07:32:48;17.90;99.90
11824;DHT22;5969;50.780;7.726;2023-09-08T07:35:15;17.90;99.90
11824;DHT22;5969;50.780;7.726;2023-09-08T07:37:42;18.10;99.90
11824;DHT22;5969;50.780;7.726;2023-09-08T07:40:10;18.10;99.90
11824;DHT22;5969;50.780;7.726;2023-09-08T07:42:37;18.20;99.90
11824;DHT22;5969;50.780;7.726;2023-09-08T07:45:06;18.40;99.90
11824;DHT22;5969;50.780;7.726;2023-09-08T07:47:35;18.40;99.90
11824;DHT22;5969;50.780;7.726;2023-09-08T07:50:17;18.60;99.90
11824;DHT22;5969;50.780;7.726;2023-09-08T07:52:44;18.70;99.90
11824;DHT22;5969;50.780;7.726;2023-09-08T07:55:11;18.80;99.90
11824;DHT22;5969;50.780;7.726;2023-09-08T07:57:38;18.90;99.90
11824;DHT22;5969;50.780;7.726;2023-09-08T08:00:07;19.00;99.90
11824;DHT22;5969;50.780;7.726;2023-09-08T08:02:36;19.10;99.90
11824;DHT22;5969;50.780;7.726;2023-09-08T08:05:04;19.20;99.90
11824;DHT22;5969;50.780;7.726;2023-09-08T08:07:31;19.20;99.90
11824;DHT22;5969;50.780;7.726;2023-09-08T08:09:58;19.30;99.90
11824;DHT22;5969;50.780;7.726;2023-09-08T08:12:25;19.40;99.90
11824;DHT22;5969;50.780;7.726;2023-09-08T08:14:52;19.50;99.90
11824;DHT22;5969;50.780;7.726;2023-09-08T08:17:20;19.60;99.90
11824;DHT22;5969;50.780;7.726;2023-09-08T08:19:47;19.70;99.90
11824;DHT22;5969;50.780;7.726;2023-09-08T08:22:14;19.70;99.90
11824;DHT22;5969;50.780;7.726;2023-09-08T08:24:40;19.80;99.90
11824;DHT22;5969;50.780;7.726;2023-09-08T08:27:07;19.90;99.90
11824;DHT22;5969;50.780;7.726;2023-09-08T08:29:34;20.00;99.90
11824;DHT22;5969;50.780;7.726;2023-09-08T08:32:01;20.20;99.90
11824;DHT22;5969;50.780;7.726;2023-09-08T08:34:29;20.40;99.90
11824;DHT22;5969;50.780;7.726;2023-09-08T08:36:56;20.40;99.90
11824;DHT22;5969;50.780;7.726;2023-09-08T08:39:23;20.60;99.90
11824;DHT22;5969;50.780;7.726;2023-09-08T08:41:49;20.70;99.90
11824;DHT22;5969;50.780;7.726;2023-09-08T08:44:17;20.80;99.90
11824;DHT22;5969;50.780;7.726;2023-09-08T08:46:46;20.80;99.90
11824;DHT22;5969;50.780;7.726;2023-09-08T08:49:15;21.00;99.90
11824;DHT22;5969;50.780;7.726;2023-09-08T08:51:44;21.20;99.90
11824;DHT22;5969;50.780;7.726;2023-09-08T08:54:12;21.30;99.90
11824;DHT22;5969;50.780;7.726;2023-09-08T08:56:39;21.40;99.90
11824;DHT22;5969;50.780;7.726;2023-09-08T08:59:06;21.50;99.90
11824;DHT22;5969;50.780;7.726;2023-09-08T09:01:33;21.60;99.90
11824;DHT22;5969;50.780;7.726;2023-09-08T09:04:01;21.60;99.90
11824;DHT22;5969;50.780;7.726;2023-09-08T09:06:27;21.80;99.90
11824;DHT22;5969;50.780;7.726;2023-09-08T09:08:56;22.00;99.90
11824;DHT22;5969;50.780;7.726;2023-09-08T09:11:23;22.10;99.90
11824;DHT22;5969;50.780;7.726;2023-09-08T09:13:50;22.20;99.90
11824;DHT22;5969;50.780;7.726;2023-09-08T09:16:17;22.40;99.90
11824;DHT22;5969;50.780;7.726;2023-09-08T09:18:55;22.40;99.90
11824;DHT22;5969;50.780;7.726;2023-09-08T09:21:22;22.70;99.90
11824;DHT22;5969;50.780;7.726;2023-09-08T09:23:49;22.90;99.90
11824;DHT22;5969;50.780;7.726;2023-09-08T09:26:25;23.30;99.90
11824;DHT22;5969;50.780;7.726;2023-09-08T09:28:52;23.70;99.90
11824;DHT22;5969;50.780;7.726;2023-09-08T09:31:23;23.90;99.90
11824;DHT22;5969;50.780;7.726;2023-09-08T09:34:01;24.00;99.90
11824;DHT22;5969;50.780;7.726;2023-09-08T09:36:29;24.10;99.90
11824;DHT22;5969;50.780;7.726;2023-09-08T09:38:58;24.30;99.90
11824;DHT22;5969;50.780;7.726;2023-09-08T09:41:27;24.30;99.90
11824;DHT22;5969;50.780;7.726;2023-09-08T09:43:55;24.60;99.90
11824;DHT22;5969;50.780;7.726;2023-09-08T09:46:22;24.80;99.90
11824;DHT22;5969;50.780;7.726;2023-09-08T09:48:50;25.00;99.90
11824;DHT22;5969;50.780;7.726;2023-09-08T09:51:19;25.20;99.90
11824;DHT22;5969;50.780;7.726;2023-09-08T09:53:46;25.30;99.90
11824;DHT22;5969;50.780;7.726;2023-09-08T09:56:13;25.40;99.90
11824;DHT22;5969;50.780;7.726;2023-09-08T09:58:43;25.50;99.90
11824;DHT22;5969;50.780;7.726;2023-09-08T10:01:11;25.60;99.90
11824;DHT22;5969;50.780;7.726;2023-09-08T10:03:39;25.60;99.90
11824;DHT22;5969;50.780;7.726;2023-09-08T10:06:06;25.90;99.90
11824;DHT22;5969;50.780;7.726;2023-09-08T10:08:34;25.90;99.90
11824;DHT22;5969;50.780;7.726;2023-09-08T10:11:05;26.00;99.90
11824;DHT22;5969;50.780;7.726;2023-09-08T10:13:36;26.10;99.90
11824;DHT22;5969;50.780;7.726;2023-09-08T10:16:08;26.10;99.90
11824;DHT22;5969;50.780;7.726;2023-09-08T10:18:35;26.20;99.90
11824;DHT22;5969;50.780;7.726;2023-09-08T10:21:04;26.40;99.90
11824;DHT22;5969;50.780;7.726;2023-09-08T10:23:36;26.50;99.90
11824;DHT22;5969;50.780;7.726;2023-09-08T10:26:05;26.60;99.90
11824;DHT22;5969;50.780;7.726;2023-09-08T10:28:36;26.60;99.90
11824;DHT22;5969;50.780;7.726;2023-09-08T10:31:03;26.70;99.50
11824;DHT22;5969;50.780;7.726;2023-09-08T10:33:32;26.70;98.30
11824;DHT22;5969;50.780;7.726;2023-09-08T10:36:00;26.60;99.60
11824;DHT22;5969;50.780;7.726;2023-09-08T10:38:30;26.90;99.90
11824;DHT22;5969;50.780;7.726;2023-09-08T10:41:28;27.10;98.60
11824;DHT22;5969;50.780;7.726;2023-09-08T10:44:00;27.10;99.00
11824;DHT22;5969;50.780;7.726;2023-09-08T10:46:29;27.40;98.80
11824;DHT22;5969;50.780;7.726;2023-09-08T10:49:03;27.40;98.80
11824;DHT22;5969;50.780;7.726;2023-09-08T10:51:30;27.40;98.50
11824;DHT22;5969;50.780;7.726;2023-09-08T10:53:58;27.50;97.60
11824;DHT22;5969;50.780;7.726;2023-09-08T10:56:46;27.60;98.10
11824;DHT22;5969;50.780;7.726;2023-09-08T10:59:14;27.70;97.60
11824;DHT22;5969;50.780;7.726;2023-09-08T11:01:41;27.80;97.00
11824;DHT22;5969;50.780;7.726;2023-09-08T11:04:09;27.70;96.40
11824;DHT22;5969;50.780;7.726;2023-09-08T11:06:38;27.70;96.60
11824;DHT22;5969;50.780;7.726;2023-09-08T11:09:06;27.90;97.10
11824;DHT22;5969;50.780;7.726;2023-09-08T11:11:33;27.90;96.90
11824;DHT22;5969;50.780;7.726;2023-09-08T11:14:02;28.00;97.00
11824;DHT22;5969;50.780;7.726;2023-09-08T11:16:29;28.20;96.00
11824;DHT22;5969;50.780;7.726;2023-09-08T11:18:58;28.10;96.00
11824;DHT22;5969;50.780;7.726;2023-09-08T11:21:28;28.10;95.80
11824;DHT22;5969;50.780;7.726;2023-09-08T11:24:00;28.40;96.00
11824;DHT22;5969;50.780;7.726;2023-09-08T11:26:32;28.60;95.70
11824;DHT22;5969;50.780;7.726;2023-09-08T11:28:58;28.80;95.00
11824;DHT22;5969;50.780;7.726;2023-09-08T11:31:25;28.90;96.00
11824;DHT22;5969;50.780;7.726;2023-09-08T11:33:55;29.00;95.00
11824;DHT22;5969;50.780;7.726;2023-09-08T11:36:22;29.20;95.50
11824;DHT22;5969;50.780;7.726;2023-09-08T11:38:50;29.40;95.30
11824;DHT22;5969;50.780;7.726;2023-09-08T11:41:17;29.60;95.30
11824;DHT22;5969;50.780;7.726;2023-09-08T11:43:48;29.70;94.50
11824;DHT22;5969;50.780;7.726;2023-09-08T11:46:17;30.00;94.70
11824;DHT22;5969;50.780;7.726;2023-09-08T11:48:44;30.00;94.30
11824;DHT22;5969;50.780;7.726;2023-09-08T11:51:11;30.20;93.70
11824;DHT22;5969;50.780;7.726;2023-09-08T11:53:38;30.30;94.00
11824;DHT22;5969;50.780;7.726;2023-09-08T11:56:06;30.20;92.30
11824;DHT22;5969;50.780;7.726;2023-09-08T11:58:34;29.90;92.50
11824;DHT22;5969;50.780;7.726;2023-09-08T12:01:00;30.00;92.40
11824;DHT22;5969;50.780;7.726;2023-09-08T12:03:28;30.20;92.50
11824;DHT22;5969;50.780;7.726;2023-09-08T12:05:55;30.00;92.80
11824;DHT22;5969;50.780;7.726;2023-09-08T12:08:25;30.40;92.90
11824;DHT22;5969;50.780;7.726;2023-09-08T12:10:53;30.60;92.50
11824;DHT22;5969;50.780;7.726;2023-09-08T12:13:22;30.80;92.50
11824;DHT22;5969;50.780;7.726;2023-09-08T12:15:49;30.60;91.30
11824;DHT22;5969;50.780;7.726;2023-09-08T12:18:16;30.60;92.30
11824;DHT22;5969;50.780;7.726;2023-09-08T12:20:44;30.90;92.20
11824;DHT22;5969;50.780;7.726;2023-09-08T12:23:16;31.10;91.70
11824;DHT22;5969;50.780;7.726;2023-09-08T12:25:47;31.10;91.60
11824;DHT22;5969;50.780;7.726;2023-09-08T12:28:16;31.60;91.60
11824;DHT22;5969;50.780;7.726;2023-09-08T12:30:44;31.50;90.70
11824;DHT22;5969;50.780;7.726;2023-09-08T12:33:12;31.20;91.20
11824;DHT22;5969;50.780;7.726;2023-09-08T12:35:43;31.60;91.20
11824;DHT22;5969;50.780;7.726;2023-09-08T12:38:10;31.50;90.40
11824;DHT22;5969;50.780;7.726;2023-09-08T12:40:38;31.50;90.70
11824;DHT22;5969;50.780;7.726;2023-09-08T12:43:05;31.70;90.30
11824;DHT22;5969;50.780;7.726;2023-09-08T12:45:32;31.50;90.40
11824;DHT22;5969;50.780;7.726;2023-09-08T12:48:01;31.20;90.90
11824;DHT22;5969;50.780;7.726;2023-09-08T12:50:29;30.90;90.60
11824;DHT22;5969;50.780;7.726;2023-09-08T12:52:56;31.00;90.80
11824;DHT22;5969;50.780;7.726;2023-09-08T12:55:23;31.30;91.10
11824;DHT22;5969;50.780;7.726;2023-09-08T12:57:50;31.60;90.70
11824;DHT22;5969;50.780;7.726;2023-09-08T13:00:20;31.90;90.30
11824;DHT22;5969;50.780;7.726;2023-09-08T13:02:48;31.90;90.50
11824;DHT22;5969;50.780;7.726;2023-09-08T13:05:16;31.90;89.50
11824;DHT22;5969;50.780;7.726;2023-09-08T13:07:43;32.40;90.10
11824;DHT22;5969;50.780;7.726;2023-09-08T13:10:10;33.70;86.30
11824;DHT22;5969;50.780;7.726;2023-09-08T13:12:36;33.40;85.90
11824;DHT22;5969;50.780;7.726;2023-09-08T13:15:04;32.90;88.80
11824;DHT22;5969;50.780;7.726;2023-09-08T13:17:31;33.10;87.30
11824;DHT22;5969;50.780;7.726;2023-09-08T13:19:57;32.30;87.10
11824;DHT22;5969;50.780;7.726;2023-09-08T13:22:26;32.60;87.10
11824;DHT22;5969;50.780;7.726;2023-09-08T13:24:53;34.30;87.40
11824;DHT22;5969;50.780;7.726;2023-09-08T13:27:20;37.50;82.30
11824;DHT22;5969;50.780;7.726;2023-09-08T13:29:47;38.00;78.90
11824;DHT22;5969;50.780;7.726;2023-09-08T13:32:14;38.00;80.00
11824;DHT22;5969;50.780;7.726;2023-09-08T13:34:41;39.20;76.80
11824;DHT22;5969;50.780;7.726;2023-09-08T13:37:09;39.10;77.70
11824;DHT22;5969;50.780;7.726;2023-09-08T13:39:37;39.40;78.00
11824;DHT22;5969;50.780;7.726;2023-09-08T13:42:04;39.50;76.00
11824;DHT22;5969;50.780;7.726;2023-09-08T13:44:31;41.40;73.70
11824;DHT22;5969;50.780;7.726;2023-09-08T13:46:57;41.50;70.50
11824;DHT22;5969;50.780;7.726;2023-09-08T13:49:26;39.70;72.90
11824;DHT22;5969;50.780;7.726;2023-09-08T13:51:52;40.40;72.40
11824;DHT22;5969;50.780;7.726;2023-09-08T13:54:20;41.50;71.00
11824;DHT22;5969;50.780;7.726;2023-09-08T13:56:58;41.60;70.50
11824;DHT22;5969;50.780;7.726;2023-09-08T13:59:26;40.70;70.90
11824;DHT22;5969;50.780;7.726;2023-09-08T14:01:54;40.10;72.70
11824;DHT22;5969;50.780;7.726;2023-09-08T14:04:21;41.40;73.10
11824;DHT22;5969;50.780;7.726;2023-09-08T14:06:47;43.20;69.80
11824;DHT22;5969;50.780;7.726;2023-09-08T14:09:15;42.10;70.50
11824;DHT22;5969;50.780;7.726;2023-09-08T14:11:42;40.80;70.00
11824;DHT22;5969;50.780;7.726;2023-09-08T14:14:10;39.00;72.30
11824;DHT22;5969;50.780;7.726;2023-09-08T14:16:37;36.60;73.90
11824;DHT22;5969;50.780;7.726;2023-09-08T14:19:04;35.10;76.50
11824;DHT22;5969;50.780;7.726;2023-09-08T14:21:31;34.10;78.50
11824;DHT22;5969;50.780;7.726;2023-09-08T14:23:58;33.90;79.80
11824;DHT22;5969;50.780;7.726;2023-09-08T14:26:24;33.30;80.60
11824;DHT22;5969;50.780;7.726;2023-09-08T14:28:51;33.60;82.10
11824;DHT22;5969;50.780;7.726;2023-09-08T14:31:20;33.80;81.50
11824;DHT22;5969;50.780;7.726;2023-09-08T14:33:46;33.90;80.70
11824;DHT22;5969;50.780;7.726;2023-09-08T14:36:17;33.70;80.60
11824;DHT22;5969;50.780;7.726;2023-09-08T14:38:43;32.80;82.80
11824;DHT22;5969;50.780;7.726;2023-09-08T14:41:10;33.00;82.40
11824;DHT22;5969;50.780;7.726;2023-09-08T14:43:37;33.10;83.10
11824;DHT22;5969;50.780;7.726;2023-09-08T14:46:04;33.30;82.70
11824;DHT22;5969;50.780;7.726;2023-09-08T14:48:32;32.80;81.80
11824;DHT22;5969;50.780;7.726;2023-09-08T14:51:00;32.50;83.90
11824;DHT22;5969;50.780;7.726;2023-09-08T14:53:27;32.80;82.80
11824;DHT22;5969;50.780;7.726;2023-09-08T14:55:55;33.00;83.60
11824;DHT22;5969;50.780;7.726;2023-09-08T14:58:23;33.30;84.40
11824;DHT22;5969;50.780;7.726;2023-09-08T15:00:50;33.10;82.80
11824;DHT22;5969;50.780;7.726;2023-09-08T15:03:17;32.70;83.40
11824;DHT22;5969;50.780;7.726;2023-09-08T15:05:45;33.30;82.20
11824;DHT22;5969;50.780;7.726;2023-09-08T15:08:12;33.30;83.60
11824;DHT22;5969;50.780;7.726;2023-09-08T15:10:39;33.90;82.90
11824;DHT22;5969;50.780;7.726;2023-09-08T15:13:05;33.80;83.00
11824;DHT22;5969;50.780;7.726;2023-09-08T15:15:32;33.80;82.70
11824;DHT22;5969;50.780;7.726;2023-09-08T15:17:59;34.30;83.30
11824;DHT22;5969;50.780;7.726;2023-09-08T15:20:26;34.10;82.40
11824;DHT22;5969;50.780;7.726;2023-09-08T15:22:54;33.90;83.20
11824;DHT22;5969;50.780;7.726;2023-09-08T15:25:21;33.80;83.00
11824;DHT22;5969;50.780;7.726;2023-09-08T15:27:48;33.50;81.20
11824;DHT22;5969;50.780;7.726;2023-09-08T15:30:18;33.40;81.10
11824;DHT22;5969;50.780;7.726;2023-09-08T15:32:44;33.60;81.30
11824;DHT22;5969;50.780;7.726;2023-09-08T15:35:11;34.30;81.30
11824;DHT22;5969;50.780;7.726;2023-09-08T15:37:38;35.10;83.30
11824;DHT22;5969;50.780;7.726;2023-09-08T15:40:07;36.40;78.10
11824;DHT22;5969;50.780;7.726;2023-09-08T15:42:39;37.80;77.80
11824;DHT22;5969;50.780;7.726;2023-09-08T15:45:06;39.60;78.10
11824;DHT22;5969;50.780;7.726;2023-09-08T15:47:33;41.30;75.30
11824;DHT22;5969;50.780;7.726;2023-09-08T15:50:00;41.50;75.00